Flight Track Log - Related Links

Times and Time Zones

All times are in EDT time to prevent confusion due to time zone crossing. See the AVN10 flight status page for this flight to view local times or setup timezone preferences in your user account.

Time Position Orientation Groundspeed Altitude Reporting Facility
EDT Latitude Longitude Course Direction KTS km/h feet Rate Location/Type
Sun 16:09:00 -18.1153 168.1077 206° Southwest  Level FlightAware Approximate
Sun 16:10:00 -18.2193 168.0545 206° Southwest  Level FlightAware Approximate
Sun 16:11:00 -18.3232 168.0013 206° Southwest  Level FlightAware Approximate
Sun 16:12:00 -18.4110 167.9221 204° Southwest  Level Estimated
Sun 16:13:00 -18.5168 167.8729 204° Southwest  Level FlightAware Approximate
Sun 16:14:00 -18.6225 167.8237 204° Southwest  Level FlightAware Approximate
Sun 16:15:00 -18.7283 167.7745 204° Southwest  Level FlightAware Approximate
Sun 16:16:00 -18.8340 167.7251 204° Southwest  Level FlightAware Approximate
Sun 16:17:00 -18.9397 167.6758 204° Southwest  Level FlightAware Approximate
Sun 16:18:00 -19.0454 167.6263 204° Southwest  Level FlightAware Approximate
Sun 16:19:00 -19.1511 167.5768 204° Southwest  Level FlightAware Approximate
Sun 16:20:00 -19.2568 167.5272 204° Southwest  Level FlightAware Approximate
Sun 16:21:00 -19.3625 167.4776 204° Southwest  Level FlightAware Approximate
Sun 16:22:00 -19.4681 167.4279 204° Southwest  Level FlightAware Approximate
Sun 16:23:00 -19.5738 167.3781 204° Southwest  Level FlightAware Approximate
Sun 16:24:00 -19.6794 167.3283 204° Southwest  Level FlightAware Approximate
Sun 16:25:00 -19.7850 167.2784 204° Southwest  Level FlightAware Approximate
Sun 16:26:00 -19.8906 167.2284 204° Southwest  Level FlightAware Approximate
Sun 16:27:00 -19.9962 167.1784 204° Southwest  Level FlightAware Approximate
Sun 16:28:00 -20.1018 167.1283 204° Southwest  Level FlightAware Approximate
Sun 16:29:00 -20.2073 167.0781 204° Southwest  Level FlightAware Approximate
Sun 16:30:00 -20.3129 167.0279 204° Southwest  Level FlightAware Approximate
Sun 16:30:53 -20.3550 166.9950 204° Southwest 484 896 38,000  Level FlightAware ADS-B
Sun 16:31:00 -20.4184 166.9776 204° Southwest  Level FlightAware Approximate
Sun 16:31:29 -20.4290 166.9600 204° Southwest 484 896 38,000  Level FlightAware ADS-B
Sun 16:32:02 -20.4980 166.9280 203° Southwest 484 896 38,000  Level FlightAware ADS-B
Sun 16:32:37 -20.5700 166.8940 204° Southwest 484 896 38,000  Level FlightAware ADS-B
Sun 16:33:12 -20.6420 166.8600 204° Southwest 485 898 38,000  Level FlightAware ADS-B
Sun 16:33:46 -20.7120 166.8270 204° Southwest 486 900 38,000  Level FlightAware ADS-B
Sun 16:34:22 -20.7870 166.7910 204° Southwest 489 906 38,000  Level FlightAware ADS-B
Sun 16:34:58 -20.8620 166.7560 204° Southwest 492 911 38,000  Level FlightAware ADS-B
Sun 16:35:34 -20.9380 166.7200 204° Southwest 495 917 38,000  Level FlightAware ADS-B
Sun 16:36:06 -21.0040 166.6890 204° Southwest 498 922 38,000  Level FlightAware ADS-B
Sun 16:36:42 -21.0810 166.6530 204° Southwest 502 930 38,000  Level FlightAware ADS-B
Sun 16:37:19 -21.1600 166.6160 204° Southwest 506 937 38,000  Level FlightAware ADS-B
Sun 16:37:50 -21.2280 166.5830 204° Southwest 508 941 38,000  Level FlightAware ADS-B
Sun 16:38:26 -21.3050 166.5470 204° Southwest 508 941 38,000  Level FlightAware ADS-B
Sun 16:39:02 -21.3830 166.5090 204° Southwest 506 937 38,000  Level FlightAware ADS-B
Sun 16:39:35 -21.4520 166.4760 204° Southwest 507 938 38,000  Level FlightAware ADS-B
Sun 16:40:12 -21.5330 166.4380 204° Southwest 506 937 38,000  Level FlightAware ADS-B
Sun 16:40:48 -21.6080 166.4020 204° Southwest 500 925 38,000  Level FlightAware ADS-B
Sun 16:41:24 -21.6840 166.3660 204° Southwest 489 906 38,000  Level FlightAware ADS-B
Sun 16:41:59 -21.7560 166.3310 204° Southwest 490 908 38,000  Level FlightAware ADS-B
Sun 16:42:30 -21.8210 166.3000 204° Southwest 488 904 38,000  Level FlightAware ADS-B
Sun 16:43:08 -21.9000 166.2620 204° Southwest 488 904 38,000  Level FlightAware ADS-B
Sun 16:43:44 -21.9720 166.2260 205° Southwest 483 895 38,000  Level FlightAware ADS-B
Sun 16:44:17 -22.0320 166.1830 214° Southwest 465 861 38,000  Level FlightAware ADS-B
Sun 16:44:52 -22.0860 166.1270 224° Southwest 456 845 38,000  Level FlightAware ADS-B
Sun 16:45:28 -22.1410 166.0700 224° Southwest 456 845 38,000  Level FlightAware ADS-B
Sun 16:46:00 -22.1890 166.0190 225° Southwest 456 845 38,000  Level FlightAware ADS-B
Sun 16:46:36 -22.2440 165.9620 224° Southwest 455 843 38,000  Level FlightAware ADS-B
Sun 16:47:10 -22.2950 165.9090 224° Southwest 455 843 38,000  Level FlightAware ADS-B
Sun 16:47:49 -22.3540 165.8470 224° Southwest 454 840 38,000  Level FlightAware ADS-B
Sun 16:48:22 -22.4050 165.7930 224° Southwest 458 848 38,000  Level FlightAware ADS-B
Sun 16:48:58 -22.4590 165.7360 224° Southwest 465 861 38,000  Level FlightAware ADS-B
Sun 16:49:33 -22.5130 165.6790 224° Southwest 470 871 38,000  Level FlightAware ADS-B
Sun 16:50:09 -22.5680 165.6200 225° Southwest 473 875 38,000  Level FlightAware ADS-B
Sun 16:50:40 -22.6190 165.5670 224° Southwest 474 877 38,000  Level FlightAware ADS-B
Sun 16:51:18 -22.6780 165.5040 225° Southwest 475 880 38,000  Level FlightAware ADS-B
Sun 16:51:46 -22.7220 165.4580 224° Southwest 467 864 38,000  Level FlightAware ADS-B
Sun 16:52:22 -22.7760 165.4000 225° Southwest 456 845 38,000  Level FlightAware ADS-B
Sun 16:52:58 -22.8310 165.3410 225° Southwest 458 848 38,000  Level FlightAware ADS-B
Sun 16:53:32 -22.8820 165.2880 224° Southwest 458 848 38,000  Level FlightAware ADS-B
Sun 16:54:06 -22.9330 165.2330 225° Southwest 458 848 38,000  Level FlightAware ADS-B
Sun 16:54:40 -22.9850 165.1780 224° Southwest 460 851 38,000  Level FlightAware ADS-B
Sun 16:55:18 -23.0430 165.1160 225° Southwest 463 858 38,000  Level FlightAware ADS-B
Sun 16:55:52 -23.0950 165.0600 225° Southwest 471 872 38,000  Level FlightAware ADS-B
Sun 16:56:26 -23.1490 165.0020 225° Southwest 480 888 38,000  Level FlightAware ADS-B
Sun 16:57:05 -23.2090 164.9380 224° Southwest 485 898 38,000  Level FlightAware ADS-B
Sun 16:57:43 -23.2610 164.8840 224° Southwest 485 898 38,000  Level FlightAware ADS-B
Sun 16:58:19 -23.3110 164.8320 224° Southwest 485 898 38,000  Level FlightAware ADS-B
Sun 16:58:55 -23.3600 164.7800 224° Southwest 485 898 38,000  Level FlightAware ADS-B
Sun 16:59:31 -23.4090 164.7280 224° Southwest 485 898 38,000  Level FlightAware ADS-B
Sun 17:00:09 -23.4610 164.6730 224° Southwest 485 898 38,000  Level FlightAware ADS-B
Sun 17:00:45 -23.5110 164.6210 224° Southwest 485 898 38,000  Level FlightAware ADS-B
Sun 17:01:21 -23.5600 164.5690 224° Southwest 485 898 38,000  Level FlightAware ADS-B
Sun 17:01:57 -23.6100 164.5170 224° Southwest 485 898 38,000  Level FlightAware ADS-B
Sun 17:02:31 -23.6560 164.4680 224° Southwest 485 898 38,000  Level FlightAware ADS-B
Sun 17:03:08 -23.7070 164.4140 224° Southwest 485 898 38,000  Level FlightAware ADS-B
Sun 17:03:45 -23.7580 164.3610 224° Southwest 485 898 38,000  Level FlightAware ADS-B
Sun 17:04:21 -23.8070 164.3080 225° Southwest 485 898 38,000  Level FlightAware ADS-B
Sun 17:04:59 -23.8590 164.2530 224° Southwest 485 898 38,000  Level FlightAware ADS-B
Sun 17:05:36 -23.9100 164.2000 224° Southwest 485 898 38,000  Level FlightAware ADS-B
Sun 17:06:10 -23.9570 164.1510 224° Southwest 485 898 38,000  Level FlightAware ADS-B
Sun 17:06:46 -24.0060 164.0980 225° Southwest 485 898 38,000 -13 Level FlightAware ADS-B
Sun 17:09:00 -24.1868 163.8961 226° Southwest  Level FlightAware Approximate
Sun 17:10:00 -24.2676 163.8056 226° Southwest  Level FlightAware Approximate
Sun 17:11:00 -24.3484 163.7149 226° Southwest  Level FlightAware Approximate
Sun 17:11:18 -23.5919 164.5257 224° Southwest 40,000  Level Aus ATC (Calculated)
Sun 17:11:30 -23.6291 164.4854 224° Southwest 40,000 -46 Level Aus ATC (Calculated)
Sun 17:13:00 -23.7417 164.3633 225° Southwest  Level FlightAware Approximate
Sun 17:14:00 -23.8167 164.2819 225° Southwest  Level FlightAware Approximate
Sun 17:14:30 -23.9605 164.1248 224° Southwest 40,000  Level Aus ATC (Calculated)
Sun 17:16:00 -24.0728 164.0022 225° Southwest  Level FlightAware Approximate
Sun 17:17:00 -24.1477 163.9203 225° Southwest  Level FlightAware Approximate
Sun 17:17:00 -24.2337 163.8255 224° Southwest 40,000  Level Aus ATC (Calculated)
Sun 17:17:29 -24.2977 163.7551 224° Southwest 40,000 -51 Level Aus ATC (Calculated)
Sun 17:19:00 -24.4110 163.6305 225° Southwest  Level FlightAware Approximate
Sun 17:20:00 -24.4857 163.5482 225° Southwest  Level FlightAware Approximate
Sun 17:20:43 -24.6120 163.4079 224° Southwest 40,000  Level Aus ATC (Calculated)
Sun 17:21:00 -24.5603 163.4659 225° Southwest  Level FlightAware Approximate
Sun 17:22:00 -24.7063 163.3005 225° Southwest  Level Estimated
Sun 17:23:00 -24.7807 163.2177 225° Southwest  Level FlightAware Approximate
Sun 17:24:00 -24.8551 163.1349 225° Southwest  Level FlightAware Approximate
Sun 17:25:00 -24.9294 163.0519 225° Southwest  Level FlightAware Approximate
Sun 17:26:00 -25.0037 162.9689 225° Southwest  Level FlightAware Approximate
Sun 17:27:00 -25.0780 162.8857 225° Southwest  Level FlightAware Approximate
Sun 17:28:00 -25.1522 162.8025 225° Southwest  Level FlightAware Approximate
Sun 17:29:00 -25.2263 162.7191 225° Southwest  Level FlightAware Approximate
Sun 17:30:00 -25.3004 162.6356 226° Southwest  Level FlightAware Approximate
Sun 17:31:00 -25.3745 162.5521 226° Southwest  Level FlightAware Approximate
Sun 17:32:00 -25.4485 162.4684 226° Southwest  Level FlightAware Approximate
Sun 17:33:00 -25.5224 162.3846 226° Southwest  Level FlightAware Approximate
Sun 17:34:00 -25.5964 162.3008 226° Southwest  Level FlightAware Approximate
Sun 17:35:00 -25.6702 162.2168 226° Southwest  Level FlightAware Approximate
Sun 17:36:00 -25.7440 162.1327 226° Southwest  Level FlightAware Approximate
Sun 17:37:00 -25.8178 162.0486 226° Southwest  Level FlightAware Approximate
Sun 17:37:18 -26.3351 161.4552 224° Southwest 40,000  Level Aus ATC (Calculated)
Sun 17:39:00 -26.4597 161.3105 226° Southwest  Level FlightAware Approximate
Sun 17:39:19 -26.5166 161.2444 224° Southwest 40,000  Level Aus ATC (Calculated)
Sun 17:41:00 -26.6398 161.1007 226° Southwest  Level FlightAware Approximate
Sun 17:41:18 -26.7355 160.9888 224° Southwest 40,000  Level Aus ATC (Calculated)
Sun 17:43:00 -26.8597 160.8431 226° Southwest  Level FlightAware Approximate
Sun 17:44:00 -26.9326 160.7573 226° Southwest  Level FlightAware Approximate
Sun 17:45:00 -27.0056 160.6713 226° Southwest  Level FlightAware Approximate
Sun 17:46:00 -27.0784 160.5852 226° Southwest  Level FlightAware Approximate
Sun 17:46:19 -27.2602 160.3698 224° Southwest 40,000  Level Aus ATC (Calculated)
Sun 17:48:00 -27.3826 160.2242 227° Southwest  Level FlightAware Approximate
Sun 17:49:00 -27.4552 160.1375 227° Southwest  Level FlightAware Approximate
Sun 17:50:00 -27.5277 160.0508 227° Southwest  Level FlightAware Approximate
Sun 17:51:00 -27.6002 159.9639 227° Southwest  Level FlightAware Approximate
Sun 17:51:14 -27.7585 159.7735 223° Southwest 40,000  Level Aus ATC (Calculated)
Sun 17:51:54 -27.8207 159.6986 223° Southwest 40,000 -127 Level Aus ATC (Calculated)
Sun 17:53:00 -27.9013 159.6011 227° Southwest  Level FlightAware Approximate
Sun 17:54:00 -27.9745 159.5124 227° Southwest  Level FlightAware Approximate
Sun 17:55:00 -28.0477 159.4235 227° Southwest  Level FlightAware Approximate
Sun 17:56:00 -28.1209 159.3345 227° Southwest  Level FlightAware Approximate
Sun 17:56:48 -28.3359 159.0718 221° Southwest 40,000  Level Aus ATC (Calculated)
Sun 17:57:00 -28.1940 159.2454 227° Southwest  Level FlightAware Approximate
Sun 17:58:00 -28.2483 159.1790 47° Northeast  Level FlightAware Approximate
Sun 17:59:00 -28.3213 159.0896 227° Southwest  Level FlightAware Approximate
Sun 18:00:00 -28.2483 159.1790 47° Northeast  Level FlightAware Approximate
Sun 18:01:00 -28.3213 159.0896 227° Southwest  Level FlightAware Approximate
Sun 18:01:38 -28.7430 158.5693 216° Southwest 40,000  Level Aus ATC (Calculated)
Sun 18:02:00 -28.2483 159.1790 47° Northeast  Level FlightAware Approximate
Sun 18:03:00 -28.6447 158.6912 47° Northeast  Level FlightAware Approximate
Sun 18:04:00 -28.5727 158.7802 47° Northeast  Level FlightAware Approximate
Sun 18:05:00 -28.5006 158.8692 47° Northeast  Level FlightAware Approximate
Sun 18:06:00 -28.4285 158.9579 47° Northeast  Level FlightAware Approximate
Sun 18:06:37 -29.1482 158.0629 176° South 40,000  Level Aus ATC (Calculated)
Sun 18:08:00 -29.2494 157.9295 227° Southwest  Level Estimated
Sun 18:08:12 -29.2694 157.9103 115° Southeast 40,000  Level Aus ATC (Calculated)
Sun 18:09:33 -29.3904 157.7572 80° East 40,000 -492 Level Aus ATC (Calculated)
Sun 18:11:00 -29.4989 157.6195 228° Southwest  Level FlightAware Approximate
Sun 18:12:00 -29.5737 157.5243 228° Southwest  Level FlightAware Approximate
Sun 18:13:00 -29.6483 157.4290 228° Southwest  Level FlightAware Approximate
Sun 18:13:06 -29.6720 157.3987 61° Northeast 40,000  Level Aus ATC (Calculated)
Sun 18:14:06 -29.3392 158.0785 228° Southwest 290 538 37,100 -1,832 Descending Aus ATC (RADAR)
Sun 18:14:41 -29.3749 158.0396 223° Southwest 298 552 37,100  Level Aus ATC (RADAR)
Sun 18:15:21 -29.4163 157.9949 223° Southwest 302 560 37,100  Level Aus ATC (RADAR)
Sun 18:15:55 -29.4525 157.9561 223° Southwest 303 562 37,100  Level Aus ATC (RADAR)
Sun 18:17:10 -29.5322 157.8707 223° Southwest 318 589 37,100  Level Aus ATC (RADAR)
Sun 18:17:30 -29.5530 157.8483 223° Southwest 312 578 37,100  Level Aus ATC (RADAR)
Sun 18:18:00 -29.5832 157.8152 224° Southwest 310 575 37,100  Level Aus ATC (RADAR)
Sun 18:18:50 -29.6374 157.7572 223° Southwest 309 573 37,100  Level Aus ATC (RADAR)
Sun 18:19:25 -29.6728 157.7181 224° Southwest 304 563 37,100  Level Aus ATC (RADAR)
Sun 18:20:00 -29.7113 157.6774 223° Southwest 311 576 37,100  Level Aus ATC (RADAR)
Sun 18:20:35 -29.7470 157.6387 223° Southwest 310 575 37,100  Level Aus ATC (RADAR)
Sun 18:21:10 -29.7884 157.5969 221° Southwest 390 723 37,100  Level Aus ATC (RADAR)
Sun 18:22:10 -29.8470 157.5304 225° Southwest 319 591 37,100  Level Aus ATC (RADAR)
Sun 18:22:35 -29.8712 157.5030 224° Southwest 309 573 37,100  Level Aus ATC (RADAR)
Sun 18:23:00 -29.8954 157.4764 224° Southwest 304 563 37,100  Level Aus ATC (RADAR)
Sun 18:23:50 -29.9432 157.4215 225° Southwest 369 684 37,100  Level Aus ATC (RADAR)
Sun 18:24:25 -29.9790 157.3829 223° Southwest 315 583 37,100  Level Aus ATC (RADAR)
Sun 18:24:59 -30.0167 157.3421 223° Southwest 317 587 37,100  Level Aus ATC (RADAR)
Sun 18:25:34 -30.0488 157.3053 225° Southwest 298 552 37,100  Level Aus ATC (RADAR)
Sun 18:26:09 -30.0858 157.2652 223° Southwest 304 563 37,100 114 Level Aus ATC (RADAR)
Sun 18:27:19 -30.1599 157.1842 223° Southwest 310 575 37,300 267 Climbing Aus ATC (RADAR)
Sun 18:27:39 -30.1800 157.1618 224° Southwest 306 566 37,500 545 Climbing Aus ATC (RADAR)
Sun 18:28:14 -30.2156 157.1223 224° Southwest 304 563 37,800 450 Climbing Aus ATC (RADAR)
Sun 18:28:59 -30.2610 157.0718 224° Southwest 303 562 38,100 600 Climbing Aus ATC (RADAR)
Sun 18:29:34 -30.2967 157.0324 224° Southwest 303 562 38,600 738 Climbing Aus ATC (RADAR)
Sun 18:30:04 -30.3263 156.9990 224° Southwest 301 557 38,900 640 Climbing Aus ATC (RADAR)
Sun 18:30:49 -30.3710 156.9493 224° Southwest 297 550 39,400 525 Climbing Aus ATC (RADAR)
Sun 18:31:24 -30.4052 156.9109 224° Southwest 297 550 39,600 533 Climbing Aus ATC (RADAR)
Sun 18:32:19 -30.4597 156.8503 224° Southwest 295 546 40,200 375 Climbing Aus ATC (RADAR)
Sun 18:32:44 -30.4846 156.8226 224° Southwest 296 549 40,100 -109 Descending Aus ATC (RADAR)
Sun 18:33:14 -30.5149 156.7885 224° Southwest 300 555 40,100  Level Aus ATC (RADAR)
Sun 18:33:59 -30.5620 156.7358 224° Southwest 310 575 40,100  Level Aus ATC (RADAR)
Sun 18:34:34 -30.5977 156.6962 224° Southwest 308 570 40,100  Level Aus ATC (RADAR)
Sun 18:35:09 -30.6334 156.6558 224° Southwest 307 568 40,100  Level Aus ATC (RADAR)
Sun 18:35:44 -30.6697 156.6155 224° Southwest 309 573 40,100  Level Aus ATC (RADAR)
Sun 18:36:14 -30.7008 156.5804 224° Southwest 311 576 40,100  Level Aus ATC (RADAR)
Sun 18:37:23 -30.7735 156.4986 224° Southwest 313 579 40,100  Level Aus ATC (RADAR)
Sun 18:37:48 -30.7998 156.4689 224° Southwest 314 581 40,100  Level Aus ATC (RADAR)
Sun 18:38:23 -30.8365 156.4273 224° Southwest 316 586 40,100  Level Aus ATC (RADAR)
Sun 18:39:08 -30.8844 156.3735 224° Southwest 318 589 40,100  Level Aus ATC (RADAR)
Sun 18:39:38 -30.9163 156.3375 224° Southwest 320 592 40,100  Level Aus ATC (RADAR)
Sun 18:40:13 -30.9538 156.2951 224° Southwest 322 597 40,100  Level Aus ATC (RADAR)
Sun 18:40:48 -30.9914 156.2522 224° Southwest 323 599 40,100  Level Aus ATC (RADAR)
Sun 18:41:23 -31.0293 156.2094 224° Southwest 325 602 40,100  Level Aus ATC (RADAR)
Sun 18:42:38 -31.1104 156.1171 224° Southwest 326 604 40,100  Level Aus ATC (RADAR)
Sun 18:43:03 -31.1374 156.0868 224° Southwest 325 602 40,100  Level Aus ATC (RADAR)
Sun 18:43:38 -31.1747 156.0441 224° Southwest 323 599 40,100  Level Aus ATC (RADAR)
Sun 18:44:18 -31.2175 155.9946 225° Southwest 324 600 40,100  Level Aus ATC (RADAR)
Sun 18:44:53 -31.2549 155.9521 224° Southwest 323 599 40,100  Level Aus ATC (RADAR)
Sun 18:45:28 -31.2919 155.9099 224° Southwest 320 592 40,100  Level Aus ATC (RADAR)
Sun 18:46:08 -31.3343 155.8617 224° Southwest 320 592 40,100  Level Aus ATC (RADAR)
Sun 18:46:42 -31.3710 155.8193 225° Southwest 319 591 40,100  Level Aus ATC (RADAR)
Sun 18:47:42 -31.4338 155.7470 224° Southwest 317 587 40,100  Level Aus ATC (RADAR)
Sun 18:48:07 -31.4601 155.7170 224° Southwest 317 587 40,100  Level Aus ATC (RADAR)
Sun 18:48:42 -31.4966 155.6749 225° Southwest 317 587 40,100  Level Aus ATC (RADAR)
Sun 18:49:27 -31.5431 155.6214 224° Southwest 313 579 40,100  Level Aus ATC (RADAR)
Sun 18:50:02 -31.5793 155.5799 224° Southwest 314 581 40,100  Level Aus ATC (RADAR)
Sun 18:50:37 -31.6150 155.5385 225° Southwest 311 576 40,100 -87 Level Aus ATC (RADAR)
Sun 18:51:11 -31.6420 155.5070 225° Southwest 310 575 40,000  Descending FlightAware ADS-B
Sun 18:51:12 -31.6508 155.4969 225° Southwest 312 578 40,100 167 Climbing Aus ATC (RADAR)
Sun 18:51:47 -31.6863 155.4558 225° Southwest 308 570 40,100 -158 Level Aus ATC (RADAR)
Sun 18:51:50 -31.6870 155.4550 225° Southwest 309 573 40,000 -133 Descending FlightAware ADS-B
Sun 18:52:32 -31.7240 155.4120 225° Southwest 308 570 40,000  Level FlightAware ADS-B
Sun 18:53:08 -31.7560 155.3760 224° Southwest 308 570 40,000  Level FlightAware ADS-B
Sun 18:53:44 -31.7870 155.3410 224° Southwest 308 570 40,000  Level FlightAware ADS-B
Sun 18:54:21 -31.8190 155.3040 224° Southwest 308 570 40,000  Level FlightAware ADS-B
Sun 18:54:57 -31.8500 155.2690 224° Southwest 308 570 40,000  Level FlightAware ADS-B
Sun 18:55:33 -31.8820 155.2330 224° Southwest 308 570 40,000  Level FlightAware ADS-B
Sun 18:56:05 -31.9500 155.1480 227° Southwest 313 579 40,000  Level FlightAware ADS-B
Sun 18:56:40 -31.9880 155.1040 224° Southwest 314 581 40,000  Level FlightAware ADS-B
Sun 18:57:16 -32.0240 155.0620 225° Southwest 306 566 40,000 91 Level FlightAware ADS-B
Sun 18:57:46 -32.0580 155.0226 225° Southwest 302 560 40,100  Climbing Aus ATC (RADAR)
Sun 18:57:51 -32.0590 155.0210 225° Southwest 301 557 40,000 -125 Descending FlightAware ADS-B
Sun 18:58:34 -32.0940 154.9800 225° Southwest 301 557 40,000  Level FlightAware ADS-B
Sun 18:59:06 -32.1340 154.9330 225° Southwest 312 578 40,000  Level FlightAware ADS-B
Sun 18:59:53 -32.1820 154.8760 225° Southwest 316 586 40,000  Level FlightAware ADS-B
Sun 19:00:28 -32.2180 154.8340 225° Southwest 314 581 40,000  Level FlightAware ADS-B
Sun 19:01:13 -32.2570 154.7890 224° Southwest 307 568 40,000  Level FlightAware ADS-B
Sun 19:01:44 -32.2950 154.7440 225° Southwest 301 557 40,000  Level FlightAware ADS-B
Sun 19:02:14 -32.3230 154.7100 226° Southwest 301 557 40,000  Level FlightAware ADS-B
Sun 19:02:52 -32.3590 154.6670 225° Southwest 299 554 40,000  Level FlightAware ADS-B
Sun 19:03:30 -32.3910 154.6300 224° Southwest 299 554 40,000  Level FlightAware ADS-B
Sun 19:04:03 -32.4320 154.5810 225° Southwest 315 583 40,000  Level FlightAware ADS-B
Sun 19:04:40 -32.4700 154.5360 225° Southwest 318 589 40,000  Level FlightAware ADS-B
Sun 19:05:14 -32.5060 154.4920 226° Southwest 319 591 40,000  Level FlightAware ADS-B
Sun 19:05:56 -32.5490 154.4420 224° Southwest 321 594 40,000  Level FlightAware ADS-B
Sun 19:06:29 -32.5850 154.3990 225° Southwest 318 589 40,000  Level FlightAware ADS-B
Sun 19:07:05 -32.6220 154.3550 225° Southwest 318 589 40,000  Level FlightAware ADS-B
Sun 19:07:39 -32.6570 154.3130 225° Southwest 316 586 40,000  Level FlightAware ADS-B
Sun 19:08:16 -32.6930 154.2700 225° Southwest 314 581 40,000  Level FlightAware ADS-B
Sun 19:08:49 -32.7290 154.2260 225° Southwest 318 589 40,000 176 Level FlightAware ADS-B
Sun 19:08:50 -32.7332 154.2217 225° Southwest 317 587 40,100 167 Climbing Aus ATC (RADAR)
Sun 19:09:25 -32.7693 154.1787 225° Southwest 315 583 40,100 -171 Level Aus ATC (RADAR)
Sun 19:09:25 -32.7650 154.1840 225° Southwest 316 586 40,000 -182 Descending FlightAware ADS-B
Sun 19:09:58 -32.7990 154.1430 225° Southwest 312 578 40,000  Level FlightAware ADS-B
Sun 19:10:39 -32.8400 154.0930 226° Southwest 314 581 40,000  Level FlightAware ADS-B
Sun 19:11:15 -32.8790 154.0470 225° Southwest 312 578 40,000  Level FlightAware ADS-B
Sun 19:11:33 -32.8960 154.0260 226° Southwest 311 576 40,000  Level FlightAware ADS-B
Sun 19:12:21 -32.9450 153.9670 225° Southwest 309 573 40,000  Level FlightAware ADS-B
Sun 19:12:58 -32.9810 153.9230 226° Southwest 309 573 40,000  Level FlightAware ADS-B
Sun 19:13:32 -33.0170 153.8800 225° Southwest 312 578 40,000  Level FlightAware ADS-B
Sun 19:14:08 -33.0520 153.8380 225° Southwest 311 576 40,000  Level FlightAware ADS-B
Sun 19:14:43 -33.0870 153.7950 226° Southwest 309 573 40,000  Level FlightAware ADS-B
Sun 19:15:20 -33.1240 153.7500 226° Southwest 310 575 40,000  Level FlightAware ADS-B
Sun 19:16:00 -33.1660 153.6990 225° Southwest 311 576 40,000  Level FlightAware ADS-B
Sun 19:16:30 -33.1975 153.6609 225° Southwest 305 565 40,000  Level Aus ATC (RADAR)
Sun 19:16:37 -33.2030 153.6530 225° Southwest 316 586 40,000  Level FlightAware ADS-B
Sun 19:17:17 -33.2430 153.6040 226° Southwest 318 589 40,000  Level FlightAware ADS-B
Sun 19:17:53 -33.2790 153.5610 225° Southwest 315 583 40,000  Level FlightAware ADS-B
Sun 19:18:24 -33.3110 153.5220 225° Southwest 314 581 40,000  Level FlightAware ADS-B
Sun 19:18:30 -33.3200 153.5116 225° Southwest 306 566 40,000  Level Aus ATC (RADAR)
Sun 19:18:54 -33.3452 153.4807 225° Southwest 306 566 40,000  Level Aus ATC (RADAR)
Sun 19:18:58 -33.3460 153.4800 225° Southwest 311 576 40,000  Level FlightAware ADS-B
Sun 19:19:29 -33.3802 153.4379 225° Southwest 303 562 40,000  Level Aus ATC (RADAR)
Sun 19:19:34 -33.3820 153.4350 225° Southwest 310 575 40,000  Level FlightAware ADS-B
Sun 19:20:11 -33.4190 153.3890 226° Southwest 310 575 40,000  Level FlightAware ADS-B
Sun 19:20:47 -33.4560 153.3440 226° Southwest 311 576 40,000  Level FlightAware ADS-B
Sun 19:20:49 -33.4599 153.3396 226° Southwest 302 560 40,000  Level Aus ATC (RADAR)
Sun 19:21:29 -33.4970 153.2930 226° Southwest 314 581 40,000  Level FlightAware ADS-B
Sun 19:22:06 -33.5360 153.2460 225° Southwest 316 586 40,000  Level FlightAware ADS-B
Sun 19:22:30 -33.5590 153.2170 226° Southwest 319 591 40,000  Level FlightAware ADS-B
Sun 19:23:05 -33.5940 153.1740 226° Southwest 318 589 40,000 -257 Level FlightAware ADS-B
Sun 19:23:40 -33.6320 153.1270 226° Southwest 309 573 39,700 -730 Descending FlightAware ADS-B
Sun 19:24:19 -33.6690 153.0810 226° Southwest 300 555 39,100 -943 Descending FlightAware ADS-B
Sun 19:24:50 -33.6980 153.0450 226° Southwest 290 538 38,600 -1,031 Descending FlightAware ADS-B
Sun 19:25:23 -33.7318 153.0022 226° Southwest 287 531 38,000 -1,029 Descending Aus ATC (RADAR)
Sun 19:25:25 -33.7310 153.0050 226° Southwest 293 542 38,000 -1,029 Level FlightAware ADS-B
Sun 19:25:58 -33.7650 152.9617 226° Southwest 287 531 37,400 -1,000 Descending Aus ATC (RADAR)
Sun 19:26:01 -33.7660 152.9610 226° Southwest 292 541 37,400 -973 Level FlightAware ADS-B
Sun 19:26:35 -33.7980 152.9210 226° Southwest 292 541 36,800 -1,739 Descending FlightAware ADS-B
Sun 19:27:10 -33.8310 152.8800 226° Southwest 290 538 35,400 -2,462 Descending FlightAware ADS-B
Sun 19:27:14 -33.8355 152.8743 226° Southwest 290 538 35,200 -2,743 Descending Aus ATC (RADAR)
Sun 19:27:45 -33.8620 152.8400 227° Southwest 292 541 33,800 -3,182 Descending FlightAware ADS-B
Sun 19:28:20 -33.8960 152.7980 226° Southwest 330 612 31,700 -3,000 Descending FlightAware ADS-B
Sun 19:28:57 -33.9380 152.7460 226° Southwest 354 655 30,200 -2,684 Descending FlightAware ADS-B
Sun 19:28:58 -33.9431 152.7403 226° Southwest 342 634 30,000 -2,118 Descending Aus ATC (RADAR)
Sun 19:29:31 -33.9770 152.6980 226° Southwest 352 652 29,000 -2,087 Descending FlightAware ADS-B
Sun 19:30:07 -34.0180 152.6460 226° Southwest 344 637 27,600 -2,229 Descending FlightAware ADS-B
Sun 19:30:41 -34.0540 152.6010 226° Southwest 338 626 26,400 -2,125 Descending FlightAware ADS-B
Sun 19:30:55 -34.0670 152.5800 233° Southwest 337 624 25,900 -2,129 Descending FlightAware ADS-B
Sun 19:31:12 -34.0760 152.5490 251° West 339 628 25,300 -2,000 Descending FlightAware ADS-B
Sun 19:31:52 -34.0730 152.4710 273° West 356 660 24,000 -2,026 Descending FlightAware ADS-B
Sun 19:32:29 -34.0670 152.4020 276° West 355 658 22,700 -2,149 Descending FlightAware ADS-B
Sun 19:32:59 -34.0610 152.3390 277° West 347 642 21,600 -2,091 Descending FlightAware ADS-B
Sun 19:33:35 -34.0550 152.2750 276° West 340 629 20,400 -2,000 Descending FlightAware ADS-B
Sun 19:34:11 -34.0480 152.2050 277° West 331 613 19,200 -1,890 Descending FlightAware ADS-B
Sun 19:34:48 -34.0420 152.1400 276° West 322 597 18,100 -1,886 Descending FlightAware ADS-B
Sun 19:35:21 -34.0360 152.0830 277° West 315 583 17,000 -1,913 Descending FlightAware ADS-B
Sun 19:35:57 -34.0300 152.0190 276° West 320 592 15,900 -1,886 Descending FlightAware ADS-B
Sun 19:36:31 -34.0240 151.9590 277° West 313 579 14,800 -1,886 Descending FlightAware ADS-B
Sun 19:37:07 -34.0180 151.8990 277° West 307 568 13,700 -1,853 Descending FlightAware ADS-B
Sun 19:37:39 -34.0120 151.8450 278° West 301 557 12,700 -1,853 Descending FlightAware ADS-B
Sun 19:38:15 -34.0060 151.7860 277° West 293 542 11,600 -1,833 Descending FlightAware ADS-B
Sun 19:38:51 -34.0000 151.7280 277° West 288 533 10,500 -1,946 Descending FlightAware ADS-B
Sun 19:38:52 -33.9997 151.7205 277° West 285 528 10,400 -500 Descending Aus ATC (RADAR)
Sun 19:39:27 -33.9940 151.6710 277° West 284 526 10,200 -610 Descending FlightAware ADS-B
Sun 19:39:51 -33.9910 151.6330 275° West 282 523 9,800 -1,171 Descending FlightAware ADS-B
Sun 19:40:08 -33.9880 151.6070 278° West 276 512 9,400 -1,333 Descending FlightAware ADS-B
Sun 19:40:27 -33.9850 151.5790 277° West 269 499 9,000 -1,256 Descending FlightAware ADS-B
Sun 19:40:51 -33.9810 151.5440 278° West 266 492 8,500 -1,149 Descending FlightAware ADS-B
Sun 19:41:14 -33.9780 151.5090 276° West 266 492 8,100 -900 Descending FlightAware ADS-B
Sun 19:41:31 -33.9750 151.4830 278° West 265 491 7,900 -833 Descending FlightAware ADS-B
Sun 19:41:50 -33.9720 151.4560 278° West 267 494 7,600 -837 Descending FlightAware ADS-B
Sun 19:42:14 -33.9690 151.4210 276° West 268 496 7,300 -923 Descending FlightAware ADS-B
Sun 19:42:42 -33.9780 151.3790 256° West 260 481 6,800 -977 Descending FlightAware ADS-B
Sun 19:42:57 -33.9940 151.3670 212° Southwest 269 499 6,600 -960 Descending FlightAware ADS-B
Sun 19:43:07 -34.0060 151.3620 199° South 269 499 6,400 -857 Descending FlightAware ADS-B
Sun 19:43:18 -34.0170 151.3570 201° Southwest 260 481 6,300 -800 Descending FlightAware ADS-B
Sun 19:43:37 -34.0400 151.3490 196° South 263 488 6,000 -1,000 Descending FlightAware ADS-B
Sun 19:43:42 -34.0460 151.3480 188° South 262 486 5,900 -960 Descending FlightAware ADS-B
Sun 19:44:02 -34.0710 151.3530 171° South 262 486 5,600 -800 Descending FlightAware ADS-B
Sun 19:44:12 -34.0810 151.3560 166° South 252 467 5,500 -800 Descending FlightAware ADS-B
Sun 19:44:32 -34.1060 151.3630 167° South 252 467 5,200 -857 Descending FlightAware ADS-B
Sun 19:44:47 -34.1220 151.3660 171° South 246 455 5,000 -857 Descending FlightAware ADS-B
Sun 19:45:07 -34.1430 151.3600 193° South 223 414 4,700 -1,000 Descending FlightAware ADS-B
Sun 19:45:17 -34.1500 151.3500 230° Southwest 218 404 4,500 -900 Descending FlightAware ADS-B
Sun 19:45:27 -34.1540 151.3410 242° Southwest 220 407 4,400 -600 Descending FlightAware ADS-B
Sun 19:45:37 -34.1560 151.3280 259° West 220 407 4,300 -600 Descending FlightAware ADS-B
Sun 19:45:57 -34.1570 151.3070 267° West 207 383 4,100 -720 Descending FlightAware ADS-B
Sun 19:46:02 -34.1550 151.3000 289° West 203 377 4,000 -900 Descending FlightAware ADS-B
Sun 19:46:17 -34.1450 151.2860 311° West 188 348 3,800 -774 Descending FlightAware ADS-B
Sun 19:46:33 -34.1350 151.2770 323° Northwest 187 346 3,600 -833 Descending FlightAware ADS-B
Sun 19:46:53 -34.1200 151.2640 324° Northwest 180 333 3,300 -960 Descending FlightAware ADS-B
Sun 19:47:23 -34.1000 151.2460 323° Northwest 177 328 2,800 -1,080 Descending FlightAware ADS-B
Sun 19:47:43 -34.0880 151.2350 323° Northwest 180 333 2,400 -1,050 Descending FlightAware ADS-B
Sun 19:48:03 -34.0740 151.2230 325° Northwest 174 322 2,100 -800 Descending FlightAware ADS-B
Sun 19:48:13 -34.0680 151.2200 338° Northwest 164 304 2,000 -600 Descending FlightAware ADS-B
Sun 19:48:33 -34.0550 151.2160 346° North 159 295 1,800 -933 Descending FlightAware ADS-B
Sun 19:48:58 -34.0350 151.2100 346° North 150 278 1,300 -933 Descending FlightAware ADS-B
Sun 19:49:18 -34.0210 151.2070 350° North 146 270 1,100 -750 Descending FlightAware ADS-B
Sun 19:49:38 -34.0090 151.2040 348° North 142 262 800 -750 Descending FlightAware ADS-B
Sun 19:49:58 -33.9960 151.2000 346° North 143 266 600 -638 Descending FlightAware ADS-B
Sun 19:50:25 -33.9790 151.1960 349° North 136 253 300 -667 Descending FlightAware ADS-B
Sun 19:50:50 -33.9620 151.1920 349° North 130 241 -720 Descending FlightAware ADS-B

Login

Don't have an account? Register now (free) for customized features, flight alerts, and more!